sensor_id;sensor_type;location;lat;lon;timestamp;pressure;altitude;pressure_sealevel;temperature;humidity
27613;BME280;15036;48.094;-1.690;2023-03-31T00:02:17;99593.19;;;16.29;68.64
27613;BME280;15036;48.094;-1.690;2023-03-31T00:04:46;99610.50;;;16.56;68.20
27613;BME280;15036;48.094;-1.690;2023-03-31T00:07:17;99604.22;;;16.29;68.36
27613;BME280;15036;48.094;-1.690;2023-03-31T00:09:46;99609.59;;;16.92;66.57
27613;BME280;15036;48.094;-1.690;2023-03-31T00:12:13;99590.03;;;16.47;67.13
27613;BME280;15036;48.094;-1.690;2023-03-31T00:14:40;99592.22;;;16.45;66.76
27613;BME280;15036;48.094;-1.690;2023-03-31T00:17:06;99598.47;;;16.72;65.89
27613;BME280;15036;48.094;-1.690;2023-03-31T00:19:32;99594.50;;;16.53;65.80
27613;BME280;15036;48.094;-1.690;2023-03-31T00:21:58;99575.78;;;16.55;63.93
27613;BME280;15036;48.094;-1.690;2023-03-31T00:24:30;99588.50;;;16.61;62.32
27613;BME280;15036;48.094;-1.690;2023-03-31T00:27:00;99592.84;;;16.52;62.33
27613;BME280;15036;48.094;-1.690;2023-03-31T00:29:28;99579.84;;;16.94;60.52
27613;BME280;15036;48.094;-1.690;2023-03-31T00:31:53;99588.66;;;16.91;61.23
27613;BME280;15036;48.094;-1.690;2023-03-31T00:34:20;99565.50;;;16.87;61.32
27613;BME280;15036;48.094;-1.690;2023-03-31T00:36:45;99569.13;;;17.08;60.13
27613;BME280;15036;48.094;-1.690;2023-03-31T00:39:18;99576.56;;;17.02;59.80
27613;BME280;15036;48.094;-1.690;2023-03-31T00:41:44;99558.38;;;17.11;59.44
27613;BME280;15036;48.094;-1.690;2023-03-31T00:44:17;99545.13;;;16.98;59.37
27613;BME280;15036;48.094;-1.690;2023-03-31T00:46:53;99544.13;;;17.40;59.00
27613;BME280;15036;48.094;-1.690;2023-03-31T00:49:33;99527.25;;;17.16;58.32
27613;BME280;15036;48.094;-1.690;2023-03-31T00:54:35;99511.44;;;16.86;59.14
27613;BME280;15036;48.094;-1.690;2023-03-31T00:57:01;99503.16;;;16.81;60.34
27613;BME280;15036;48.094;-1.690;2023-03-31T00:59:35;99506.47;;;16.88;60.34
27613;BME280;15036;48.094;-1.690;2023-03-31T01:02:01;99505.94;;;16.86;60.21
27613;BME280;15036;48.094;-1.690;2023-03-31T01:04:31;99528.53;;;16.83;61.31
27613;BME280;15036;48.094;-1.690;2023-03-31T01:07:12;99521.09;;;16.89;61.20
27613;BME280;15036;48.094;-1.690;2023-03-31T01:09:43;99512.91;;;17.09;60.63
27613;BME280;15036;48.094;-1.690;2023-03-31T01:12:12;99519.72;;;16.81;61.12
27613;BME280;15036;48.094;-1.690;2023-03-31T01:14:40;99527.03;;;16.56;61.35
27613;BME280;15036;48.094;-1.690;2023-03-31T01:17:05;99531.53;;;16.72;60.79
27613;BME280;15036;48.094;-1.690;2023-03-31T01:33:43;99507.81;;;16.24;63.27
27613;BME280;15036;48.094;-1.690;2023-03-31T01:39:25;99515.53;;;16.74;61.57
27613;BME280;15036;48.094;-1.690;2023-03-31T01:42:19;99496.09;;;16.43;62.04
27613;BME280;15036;48.094;-1.690;2023-03-31T01:45:05;99499.13;;;16.00;63.52
27613;BME280;15036;48.094;-1.690;2023-03-31T01:47:43;99468.25;;;16.45;61.90
27613;BME280;15036;48.094;-1.690;2023-03-31T01:50:21;99481.09;;;16.76;61.81
27613;BME280;15036;48.094;-1.690;2023-03-31T01:52:57;99470.88;;;16.20;62.22
27613;BME280;15036;48.094;-1.690;2023-03-31T01:55:35;99505.84;;;16.61;62.54
27613;BME280;15036;48.094;-1.690;2023-03-31T01:58:16;99496.75;;;16.14;63.79
27613;BME280;15036;48.094;-1.690;2023-03-31T02:00:51;99509.03;;;15.65;65.36
27613;BME280;15036;48.094;-1.690;2023-03-31T02:03:23;99502.47;;;15.17;67.28
27613;BME280;15036;48.094;-1.690;2023-03-31T02:05:55;99493.44;;;15.43;66.31
27613;BME280;15036;48.094;-1.690;2023-03-31T02:08:28;99479.97;;;15.79;65.66
27613;BME280;15036;48.094;-1.690;2023-03-31T02:10:55;99488.59;;;15.92;64.42
27613;BME280;15036;48.094;-1.690;2023-03-31T02:13:22;99494.63;;;16.31;62.90
27613;BME280;15036;48.094;-1.690;2023-03-31T02:15:54;99479.56;;;16.43;62.25
27613;BME280;15036;48.094;-1.690;2023-03-31T02:18:25;99469.81;;;16.26;62.01
27613;BME280;15036;48.094;-1.690;2023-03-31T02:20:53;99473.47;;;16.41;61.15
27613;BME280;15036;48.094;-1.690;2023-03-31T02:23:24;99469.06;;;15.94;60.90
27613;BME280;15036;48.094;-1.690;2023-03-31T02:26:14;99450.66;;;15.99;59.97
27613;BME280;15036;48.094;-1.690;2023-03-31T02:28:40;99453.00;;;16.79;58.58
27613;BME280;15036;48.094;-1.690;2023-03-31T02:31:32;99455.13;;;16.10;59.13
27613;BME280;15036;48.094;-1.690;2023-03-31T02:34:03;99460.00;;;16.40;58.10
27613;BME280;15036;48.094;-1.690;2023-03-31T02:36:29;99470.53;;;16.58;57.64
27613;BME280;15036;48.094;-1.690;2023-03-31T02:39:03;99458.63;;;16.47;57.21
27613;BME280;15036;48.094;-1.690;2023-03-31T02:41:29;99419.97;;;16.27;57.38
27613;BME280;15036;48.094;-1.690;2023-03-31T02:43:55;99421.38;;;16.35;56.83
27613;BME280;15036;48.094;-1.690;2023-03-31T02:46:21;99445.94;;;15.90;57.70
27613;BME280;15036;48.094;-1.690;2023-03-31T03:10:56;99428.97;;;16.13;56.10
27613;BME280;15036;48.094;-1.690;2023-03-31T03:16:09;99431.00;;;16.27;55.78
27613;BME280;15036;48.094;-1.690;2023-03-31T03:18:38;99402.66;;;16.37;55.22
27613;BME280;15036;48.094;-1.690;2023-03-31T03:21:04;99426.44;;;16.53;55.30
27613;BME280;15036;48.094;-1.690;2023-03-31T03:23:29;99425.78;;;16.26;55.45
27613;BME280;15036;48.094;-1.690;2023-03-31T03:25:55;99418.72;;;16.50;54.92
27613;BME280;15036;48.094;-1.690;2023-03-31T03:28:21;99414.34;;;16.64;54.79
27613;BME280;15036;48.094;-1.690;2023-03-31T03:30:47;99417.00;;;16.34;55.69
27613;BME280;15036;48.094;-1.690;2023-03-31T03:33:12;99407.66;;;16.45;54.91
27613;BME280;15036;48.094;-1.690;2023-03-31T03:35:41;99392.75;;;16.41;55.21
27613;BME280;15036;48.094;-1.690;2023-03-31T03:38:07;99394.97;;;16.39;55.27
27613;BME280;15036;48.094;-1.690;2023-03-31T03:40:34;99406.25;;;16.37;55.11
27613;BME280;15036;48.094;-1.690;2023-03-31T03:42:59;99399.34;;;16.35;55.80
27613;BME280;15036;48.094;-1.690;2023-03-31T03:45:24;99390.53;;;16.33;55.90
27613;BME280;15036;48.094;-1.690;2023-03-31T03:47:50;99395.63;;;16.61;55.20
27613;BME280;15036;48.094;-1.690;2023-03-31T03:50:15;99379.16;;;16.09;56.67
27613;BME280;15036;48.094;-1.690;2023-03-31T03:52:41;99397.88;;;16.84;54.85
27613;BME280;15036;48.094;-1.690;2023-03-31T03:55:06;99401.38;;;16.50;56.10
27613;BME280;15036;48.094;-1.690;2023-03-31T03:57:32;99406.69;;;16.09;56.69
27613;BME280;15036;48.094;-1.690;2023-03-31T03:59:57;99389.56;;;16.59;55.32
27613;BME280;15036;48.094;-1.690;2023-03-31T04:02:23;99376.34;;;15.99;56.73
27613;BME280;15036;48.094;-1.690;2023-03-31T04:04:50;99383.81;;;16.04;58.13
27613;BME280;15036;48.094;-1.690;2023-03-31T04:07:15;99382.81;;;16.35;57.63
27613;BME280;15036;48.094;-1.690;2023-03-31T04:09:41;99386.06;;;16.17;57.64
27613;BME280;15036;48.094;-1.690;2023-03-31T04:12:07;99387.53;;;16.44;56.95
27613;BME280;15036;48.094;-1.690;2023-03-31T04:14:32;99374.88;;;15.82;58.58
27613;BME280;15036;48.094;-1.690;2023-03-31T04:16:57;99397.50;;;15.94;60.34
27613;BME280;15036;48.094;-1.690;2023-03-31T04:19:23;99385.25;;;15.70;61.29
27613;BME280;15036;48.094;-1.690;2023-03-31T04:21:53;99390.63;;;15.49;60.49
27613;BME280;15036;48.094;-1.690;2023-03-31T04:24:27;99393.25;;;15.39;60.66
27613;BME280;15036;48.094;-1.690;2023-03-31T04:26:57;99356.50;;;15.45;60.23
27613;BME280;15036;48.094;-1.690;2023-03-31T04:29:23;99366.59;;;15.77;59.19
27613;BME280;15036;48.094;-1.690;2023-03-31T04:31:53;99375.63;;;16.24;58.28
27613;BME280;15036;48.094;-1.690;2023-03-31T04:34:23;99377.09;;;15.85;59.40
27613;BME280;15036;48.094;-1.690;2023-03-31T04:36:50;99374.88;;;15.82;60.92
27613;BME280;15036;48.094;-1.690;2023-03-31T04:39:17;99381.03;;;15.57;61.46
27613;BME280;15036;48.094;-1.690;2023-03-31T04:41:56;99360.22;;;15.71;60.87
27613;BME280;15036;48.094;-1.690;2023-03-31T04:44:21;99367.28;;;15.20;61.12
27613;BME280;15036;48.094;-1.690;2023-03-31T04:46:47;99404.94;;;15.51;60.47
27613;BME280;15036;48.094;-1.690;2023-03-31T04:49:13;99390.41;;;15.61;59.03
27613;BME280;15036;48.094;-1.690;2023-03-31T04:51:38;99454.59;;;15.72;58.55
27613;BME280;15036;48.094;-1.690;2023-03-31T04:54:04;99389.53;;;15.92;57.71
27613;BME280;15036;48.094;-1.690;2023-03-31T04:56:29;99375.94;;;15.76;57.81
27613;BME280;15036;48.094;-1.690;2023-03-31T04:58:55;99399.44;;;16.50;56.61
27613;BME280;15036;48.094;-1.690;2023-03-31T05:01:20;99396.22;;;16.16;56.66
27613;BME280;15036;48.094;-1.690;2023-03-31T05:03:46;99383.88;;;16.19;56.75
27613;BME280;15036;48.094;-1.690;2023-03-31T05:06:13;99392.13;;;16.19;56.27
27613;BME280;15036;48.094;-1.690;2023-03-31T05:08:38;99410.28;;;16.15;56.64
27613;BME280;15036;48.094;-1.690;2023-03-31T05:11:03;99417.63;;;16.56;55.96
27613;BME280;15036;48.094;-1.690;2023-03-31T05:13:30;99406.22;;;16.32;55.82
27613;BME280;15036;48.094;-1.690;2023-03-31T05:15:55;99397.41;;;16.30;56.08
27613;BME280;15036;48.094;-1.690;2023-03-31T05:18:21;99409.25;;;16.31;56.84
27613;BME280;15036;48.094;-1.690;2023-03-31T05:20:46;99413.34;;;16.23;57.52
27613;BME280;15036;48.094;-1.690;2023-03-31T05:23:12;99428.66;;;15.99;58.69
27613;BME280;15036;48.094;-1.690;2023-03-31T05:25:37;99411.28;;;15.99;59.51
27613;BME280;15036;48.094;-1.690;2023-03-31T05:28:07;99442.16;;;15.64;61.17
27613;BME280;15036;48.094;-1.690;2023-03-31T05:30:32;99437.94;;;15.51;62.45
27613;BME280;15036;48.094;-1.690;2023-03-31T05:32:58;99433.63;;;15.34;62.98
27613;BME280;15036;48.094;-1.690;2023-03-31T05:35:23;99448.22;;;15.03;65.04
27613;BME280;15036;48.094;-1.690;2023-03-31T05:37:49;99436.34;;;14.97;64.89
27613;BME280;15036;48.094;-1.690;2023-03-31T05:40:15;99441.50;;;15.20;64.45
27613;BME280;15036;48.094;-1.690;2023-03-31T05:42:40;99455.69;;;15.07;64.54
27613;BME280;15036;48.094;-1.690;2023-03-31T05:45:06;99439.69;;;15.04;63.67
27613;BME280;15036;48.094;-1.690;2023-03-31T05:47:32;99445.28;;;15.41;63.00
27613;BME280;15036;48.094;-1.690;2023-03-31T05:49:57;99448.38;;;15.49;62.18
27613;BME280;15036;48.094;-1.690;2023-03-31T05:52:22;99458.69;;;15.37;62.30
27613;BME280;15036;48.094;-1.690;2023-03-31T05:54:48;99451.09;;;15.18;62.10
27613;BME280;15036;48.094;-1.690;2023-03-31T05:57:13;99445.91;;;15.53;61.29
27613;BME280;15036;48.094;-1.690;2023-03-31T05:59:39;99463.59;;;15.30;61.50
27613;BME280;15036;48.094;-1.690;2023-03-31T06:02:06;99460.47;;;15.48;60.65
27613;BME280;15036;48.094;-1.690;2023-03-31T06:04:32;99465.13;;;15.43;60.65
27613;BME280;15036;48.094;-1.690;2023-03-31T06:06:58;99472.72;;;15.36;60.54
27613;BME280;15036;48.094;-1.690;2023-03-31T06:09:24;99454.38;;;15.15;61.58
27613;BME280;15036;48.094;-1.690;2023-03-31T06:11:49;99458.34;;;15.29;61.64
27613;BME280;15036;48.094;-1.690;2023-03-31T06:14:15;99475.28;;;15.42;62.03
27613;BME280;15036;48.094;-1.690;2023-03-31T06:16:40;99469.41;;;15.66;61.75
27613;BME280;15036;48.094;-1.690;2023-03-31T06:19:07;99474.06;;;15.33;61.44
27613;BME280;15036;48.094;-1.690;2023-03-31T06:21:33;99476.88;;;15.38;61.56
27613;BME280;15036;48.094;-1.690;2023-03-31T06:24:00;99468.00;;;15.05;61.11
27613;BME280;15036;48.094;-1.690;2023-03-31T06:26:26;99449.66;;;15.10;61.41
27613;BME280;15036;48.094;-1.690;2023-03-31T06:28:52;99484.91;;;15.18;60.35
27613;BME280;15036;48.094;-1.690;2023-03-31T06:31:23;99470.22;;;15.34;61.12
27613;BME280;15036;48.094;-1.690;2023-03-31T06:33:49;99472.25;;;15.44;60.77
27613;BME280;15036;48.094;-1.690;2023-03-31T06:36:17;99469.53;;;15.49;61.06
27613;BME280;15036;48.094;-1.690;2023-03-31T06:38:44;99473.28;;;15.38;60.78
27613;BME280;15036;48.094;-1.690;2023-03-31T06:41:12;99477.94;;;15.37;60.74
27613;BME280;15036;48.094;-1.690;2023-03-31T06:43:38;99474.06;;;14.80;61.53
27613;BME280;15036;48.094;-1.690;2023-03-31T06:46:03;99481.22;;;15.08;61.30
27613;BME280;15036;48.094;-1.690;2023-03-31T06:48:29;99479.63;;;15.38;59.67
27613;BME280;15036;48.094;-1.690;2023-03-31T06:50:57;99497.00;;;15.76;59.71
27613;BME280;15036;48.094;-1.690;2023-03-31T06:53:23;99496.81;;;15.50;59.88
27613;BME280;15036;48.094;-1.690;2023-03-31T06:55:48;99509.50;;;15.56;60.49
27613;BME280;15036;48.094;-1.690;2023-03-31T06:58:14;99507.28;;;15.53;61.34
27613;BME280;15036;48.094;-1.690;2023-03-31T07:00:39;99515.34;;;15.38;62.29
27613;BME280;15036;48.094;-1.690;2023-03-31T07:03:05;99513.25;;;15.19;63.13
27613;BME280;15036;48.094;-1.690;2023-03-31T07:05:33;99519.44;;;15.36;63.21
27613;BME280;15036;48.094;-1.690;2023-03-31T07:07:59;99516.88;;;15.24;64.01
27613;BME280;15036;48.094;-1.690;2023-03-31T07:10:27;99555.75;;;14.90;64.91
27613;BME280;15036;48.094;-1.690;2023-03-31T07:12:53;99521.53;;;14.97;65.07
27613;BME280;15036;48.094;-1.690;2023-03-31T07:15:20;99526.56;;;15.05;65.18
27613;BME280;15036;48.094;-1.690;2023-03-31T07:17:46;99516.91;;;15.03;64.50
27613;BME280;15036;48.094;-1.690;2023-03-31T07:20:16;99500.25;;;15.14;63.64
27613;BME280;15036;48.094;-1.690;2023-03-31T07:22:47;99519.09;;;15.54;62.98
27613;BME280;15036;48.094;-1.690;2023-03-31T07:25:14;99516.78;;;15.41;62.75
27613;BME280;15036;48.094;-1.690;2023-03-31T07:27:40;99511.91;;;15.48;61.88
27613;BME280;15036;48.094;-1.690;2023-03-31T07:30:07;99524.50;;;15.71;61.26
27613;BME280;15036;48.094;-1.690;2023-03-31T07:32:33;99521.59;;;15.55;60.71
27613;BME280;15036;48.094;-1.690;2023-03-31T07:34:59;99517.34;;;16.06;59.61
27613;BME280;15036;48.094;-1.690;2023-03-31T07:37:25;99542.66;;;15.72;59.86
27613;BME280;15036;48.094;-1.690;2023-03-31T07:39:50;99542.03;;;15.65;60.50
27613;BME280;15036;48.094;-1.690;2023-03-31T07:42:16;99534.03;;;15.95;60.53
27613;BME280;15036;48.094;-1.690;2023-03-31T07:44:41;99532.31;;;15.30;61.48
27613;BME280;15036;48.094;-1.690;2023-03-31T07:47:07;99539.06;;;15.71;60.67
27613;BME280;15036;48.094;-1.690;2023-03-31T07:49:33;99510.00;;;15.48;60.48
27613;BME280;15036;48.094;-1.690;2023-03-31T07:51:59;99546.69;;;15.37;60.61
27613;BME280;15036;48.094;-1.690;2023-03-31T07:54:25;99530.75;;;15.39;60.62
27613;BME280;15036;48.094;-1.690;2023-03-31T07:56:51;99546.50;;;15.71;60.86
27613;BME280;15036;48.094;-1.690;2023-03-31T07:59:17;99544.81;;;16.01;59.84
27613;BME280;15036;48.094;-1.690;2023-03-31T08:01:43;99565.81;;;15.49;60.21
27613;BME280;15036;48.094;-1.690;2023-03-31T08:04:10;99545.03;;;15.63;60.06
27613;BME280;15036;48.094;-1.690;2023-03-31T08:06:36;99543.66;;;15.60;59.94
27613;BME280;15036;48.094;-1.690;2023-03-31T08:09:02;99550.44;;;15.80;59.36
27613;BME280;15036;48.094;-1.690;2023-03-31T08:11:29;99547.75;;;15.58;58.64
27613;BME280;15036;48.094;-1.690;2023-03-31T08:13:55;99541.69;;;15.88;57.64
27613;BME280;15036;48.094;-1.690;2023-03-31T08:16:21;99546.53;;;15.76;57.79
27613;BME280;15036;48.094;-1.690;2023-03-31T08:18:46;99546.25;;;15.77;57.30
27613;BME280;15036;48.094;-1.690;2023-03-31T08:21:12;99559.16;;;16.03;56.69
27613;BME280;15036;48.094;-1.690;2023-03-31T08:23:37;99553.63;;;15.98;57.20
27613;BME280;15036;48.094;-1.690;2023-03-31T08:26:13;99557.06;;;16.20;55.71
27613;BME280;15036;48.094;-1.690;2023-03-31T08:28:39;99573.50;;;16.47;55.43
27613;BME280;15036;48.094;-1.690;2023-03-31T08:31:05;99571.09;;;16.19;55.33
27613;BME280;15036;48.094;-1.690;2023-03-31T08:33:34;99570.41;;;16.38;55.00
27613;BME280;15036;48.094;-1.690;2023-03-31T08:36:03;99584.69;;;16.67;54.81
27613;BME280;15036;48.094;-1.690;2023-03-31T08:38:30;99574.97;;;16.18;55.51
27613;BME280;15036;48.094;-1.690;2023-03-31T08:41:00;99587.88;;;16.17;55.58
27613;BME280;15036;48.094;-1.690;2023-03-31T08:43:30;99589.06;;;15.95;56.35
27613;BME280;15036;48.094;-1.690;2023-03-31T08:45:58;99564.91;;;16.02;56.19
27613;BME280;15036;48.094;-1.690;2023-03-31T08:48:51;99618.25;;;16.27;56.25
27613;BME280;15036;48.094;-1.690;2023-03-31T08:51:23;99596.78;;;16.29;55.79
27613;BME280;15036;48.094;-1.690;2023-03-31T08:53:50;99613.09;;;16.36;54.91
27613;BME280;15036;48.094;-1.690;2023-03-31T08:56:19;99593.50;;;16.32;55.07
27613;BME280;15036;48.094;-1.690;2023-03-31T08:58:57;99622.19;;;16.05;55.76
27613;BME280;15036;48.094;-1.690;2023-03-31T09:18:34;99637.13;;;16.45;55.79
27613;BME280;15036;48.094;-1.690;2023-03-31T09:23:43;99641.09;;;17.01;55.28
27613;BME280;15036;48.094;-1.690;2023-03-31T09:26:20;99629.00;;;17.17;54.67
27613;BME280;15036;48.094;-1.690;2023-03-31T09:28:48;99636.94;;;17.04;55.05
27613;BME280;15036;48.094;-1.690;2023-03-31T09:31:17;99632.03;;;17.11;54.08
27613;BME280;15036;48.094;-1.690;2023-03-31T09:33:45;99654.09;;;17.16;53.35
27613;BME280;15036;48.094;-1.690;2023-03-31T09:36:17;99657.94;;;17.05;53.65
27613;BME280;15036;48.094;-1.690;2023-03-31T09:38:44;99664.47;;;16.94;54.27
27613;BME280;15036;48.094;-1.690;2023-03-31T09:41:10;99673.06;;;16.97;56.96
27613;BME280;15036;48.094;-1.690;2023-03-31T09:43:40;99667.34;;;16.04;59.90
27613;BME280;15036;48.094;-1.690;2023-03-31T09:46:16;99679.59;;;15.91;61.02
27613;BME280;15036;48.094;-1.690;2023-03-31T09:48:47;99678.53;;;15.92;61.28
27613;BME280;15036;48.094;-1.690;2023-03-31T09:51:17;99659.56;;;15.96;60.62
27613;BME280;15036;48.094;-1.690;2023-03-31T09:53:49;99659.78;;;16.53;59.69
27613;BME280;15036;48.094;-1.690;2023-03-31T09:56:34;99673.69;;;16.04;58.42
27613;BME280;15036;48.094;-1.690;2023-03-31T09:59:01;99650.34;;;16.80;56.38
27613;BME280;15036;48.094;-1.690;2023-03-31T10:01:27;99664.81;;;16.61;55.35
27613;BME280;15036;48.094;-1.690;2023-03-31T10:03:54;99653.78;;;17.02;54.23
27613;BME280;15036;48.094;-1.690;2023-03-31T10:06:20;99649.75;;;17.30;52.95
27613;BME280;15036;48.094;-1.690;2023-03-31T10:09:00;99658.75;;;17.05;53.54
27613;BME280;15036;48.094;-1.690;2023-03-31T10:11:26;99667.59;;;17.64;52.33
27613;BME280;15036;48.094;-1.690;2023-03-31T10:16:30;99685.38;;;17.37;52.65
27613;BME280;15036;48.094;-1.690;2023-03-31T10:21:54;99672.84;;;17.81;52.24
27613;BME280;15036;48.094;-1.690;2023-03-31T10:24:20;99667.81;;;17.58;51.89
27613;BME280;15036;48.094;-1.690;2023-03-31T10:26:48;99661.78;;;17.61;52.31
27613;BME280;15036;48.094;-1.690;2023-03-31T10:29:21;99672.13;;;17.33;52.66
27613;BME280;15036;48.094;-1.690;2023-03-31T10:31:50;99675.41;;;18.02;52.00
27613;BME280;15036;48.094;-1.690;2023-03-31T10:34:16;99684.22;;;17.22;53.77
27613;BME280;15036;48.094;-1.690;2023-03-31T10:36:47;99666.38;;;17.45;53.33
27613;BME280;15036;48.094;-1.690;2023-03-31T10:39:15;99682.19;;;17.60;52.86
27613;BME280;15036;48.094;-1.690;2023-03-31T10:41:41;99682.22;;;17.75;52.88
27613;BME280;15036;48.094;-1.690;2023-03-31T10:44:33;99660.00;;;17.34;52.17
27613;BME280;15036;48.094;-1.690;2023-03-31T10:49:42;99678.34;;;17.66;51.90
27613;BME280;15036;48.094;-1.690;2023-03-31T10:52:18;99687.81;;;18.00;53.12
27613;BME280;15036;48.094;-1.690;2023-03-31T10:55:00;99696.47;;;16.95;57.22
27613;BME280;15036;48.094;-1.690;2023-03-31T11:02:45;99705.06;;;16.35;59.60
27613;BME280;15036;48.094;-1.690;2023-03-31T11:19:28;99701.22;;;17.61;52.94
27613;BME280;15036;48.094;-1.690;2023-03-31T11:21:59;99694.44;;;17.94;52.55
27613;BME280;15036;48.094;-1.690;2023-03-31T11:30:03;99722.53;;;16.19;58.77
27613;BME280;15036;48.094;-1.690;2023-03-31T11:35:12;99735.28;;;15.33;64.07
27613;BME280;15036;48.094;-1.690;2023-03-31T11:43:04;99728.16;;;15.16;62.33
27613;BME280;15036;48.094;-1.690;2023-03-31T11:45:44;99727.75;;;15.67;61.35
27613;BME280;15036;48.094;-1.690;2023-03-31T11:48:19;99727.00;;;15.72;61.12
27613;BME280;15036;48.094;-1.690;2023-03-31T11:50:47;99735.69;;;16.12;60.94
27613;BME280;15036;48.094;-1.690;2023-03-31T11:53:19;99724.38;;;16.08;60.54
27613;BME280;15036;48.094;-1.690;2023-03-31T11:55:50;99753.56;;;16.36;60.23
27613;BME280;15036;48.094;-1.690;2023-03-31T12:01:16;99720.22;;;16.64;56.78
27613;BME280;15036;48.094;-1.690;2023-03-31T12:04:14;99723.97;;;16.85;55.71
27613;BME280;15036;48.094;-1.690;2023-03-31T12:06:45;99736.19;;;17.46;55.34
27613;BME280;15036;48.094;-1.690;2023-03-31T12:09:36;99749.06;;;17.30;55.42
27613;BME280;15036;48.094;-1.690;2023-03-31T12:14:38;99769.00;;;17.94;54.03
27613;BME280;15036;48.094;-1.690;2023-03-31T12:17:16;99736.25;;;17.56;53.96
27613;BME280;15036;48.094;-1.690;2023-03-31T12:19:59;99743.97;;;17.54;54.96
27613;BME280;15036;48.094;-1.690;2023-03-31T12:22:33;99750.19;;;17.34;56.89
27613;BME280;15036;48.094;-1.690;2023-03-31T12:25:01;99760.31;;;16.82;58.90
27613;BME280;15036;48.094;-1.690;2023-03-31T12:27:39;99753.81;;;16.61;60.26
27613;BME280;15036;48.094;-1.690;2023-03-31T12:30:33;99742.22;;;16.32;61.56
27613;BME280;15036;48.094;-1.690;2023-03-31T12:44:49;99737.09;;;15.88;64.41
27613;BME280;15036;48.094;-1.690;2023-03-31T12:55:54;99752.03;;;16.77;59.99
27613;BME280;15036;48.094;-1.690;2023-03-31T13:04:06;99742.38;;;17.63;56.20
27613;BME280;15036;48.094;-1.690;2023-03-31T13:09:06;99742.34;;;18.55;54.29
27613;BME280;15036;48.094;-1.690;2023-03-31T13:11:51;99741.50;;;18.44;53.25
27613;BME280;15036;48.094;-1.690;2023-03-31T13:14:26;99761.69;;;18.55;52.54
27613;BME280;15036;48.094;-1.690;2023-03-31T13:17:21;99709.66;;;18.16;50.56
27613;BME280;15036;48.094;-1.690;2023-03-31T13:19:47;99729.81;;;18.12;50.16
27613;BME280;15036;48.094;-1.690;2023-03-31T13:22:31;99724.03;;;18.24;49.94
27613;BME280;15036;48.094;-1.690;2023-03-31T13:27:51;99717.19;;;18.81;48.69
27613;BME280;15036;48.094;-1.690;2023-03-31T13:35:36;99753.13;;;18.91;48.22
27613;BME280;15036;48.094;-1.690;2023-03-31T13:41:09;99753.84;;;19.52;48.26
27613;BME280;15036;48.094;-1.690;2023-03-31T13:51:57;99767.16;;;19.30;46.90
27613;BME280;15036;48.094;-1.690;2023-03-31T14:02:19;99766.63;;;19.38;47.97
27613;BME280;15036;48.094;-1.690;2023-03-31T14:07:19;99778.16;;;19.70;47.84
27613;BME280;15036;48.094;-1.690;2023-03-31T14:09:45;99801.78;;;19.38;48.03
27613;BME280;15036;48.094;-1.690;2023-03-31T14:14:46;99796.25;;;19.43;47.55
27613;BME280;15036;48.094;-1.690;2023-03-31T14:17:11;99761.81;;;19.74;47.15
27613;BME280;15036;48.094;-1.690;2023-03-31T14:27:57;99805.69;;;18.91;49.38
27613;BME280;15036;48.094;-1.690;2023-03-31T14:38:59;99798.09;;;19.67;45.49
27613;BME280;15036;48.094;-1.690;2023-03-31T14:41:26;99808.44;;;19.17;46.68
27613;BME280;15036;48.094;-1.690;2023-03-31T14:43:54;99805.50;;;19.87;45.34
27613;BME280;15036;48.094;-1.690;2023-03-31T14:46:21;99788.84;;;20.02;44.66
27613;BME280;15036;48.094;-1.690;2023-03-31T14:48:49;99777.47;;;20.04;44.94
27613;BME280;15036;48.094;-1.690;2023-03-31T14:51:17;99784.81;;;20.33;44.23
27613;BME280;15036;48.094;-1.690;2023-03-31T14:53:43;99800.72;;;20.03;44.43
27613;BME280;15036;48.094;-1.690;2023-03-31T14:56:11;99794.72;;;19.85;45.23
27613;BME280;15036;48.094;-1.690;2023-03-31T14:58:42;99820.88;;;19.34;45.98
27613;BME280;15036;48.094;-1.690;2023-03-31T15:01:14;99797.63;;;18.55;47.15
27613;BME280;15036;48.094;-1.690;2023-03-31T15:03:41;99791.56;;;18.73;47.37
27613;BME280;15036;48.094;-1.690;2023-03-31T15:06:08;99803.97;;;18.45;48.05
27613;BME280;15036;48.094;-1.690;2023-03-31T15:08:34;99786.50;;;18.30;47.48
27613;BME280;15036;48.094;-1.690;2023-03-31T15:11:04;99796.22;;;18.52;48.01
27613;BME280;15036;48.094;-1.690;2023-03-31T15:13:42;99785.22;;;18.67;47.78
27613;BME280;15036;48.094;-1.690;2023-03-31T15:16:39;99793.19;;;19.14;46.47
27613;BME280;15036;48.094;-1.690;2023-03-31T15:19:25;99794.03;;;18.64;47.38
27613;BME280;15036;48.094;-1.690;2023-03-31T15:21:59;99809.50;;;18.60;47.28
27613;BME280;15036;48.094;-1.690;2023-03-31T15:24:29;99809.19;;;18.42;47.93
27613;BME280;15036;48.094;-1.690;2023-03-31T15:27:29;99773.56;;;18.45;46.97
27613;BME280;15036;48.094;-1.690;2023-03-31T15:29:59;99795.41;;;19.22;45.30
27613;BME280;15036;48.094;-1.690;2023-03-31T15:32:28;99802.31;;;19.10;45.58
27613;BME280;15036;48.094;-1.690;2023-03-31T15:34:54;99793.19;;;19.44;44.84
27613;BME280;15036;48.094;-1.690;2023-03-31T15:37:29;99811.41;;;20.34;43.63
27613;BME280;15036;48.094;-1.690;2023-03-31T15:40:00;99817.81;;;19.51;44.27
27613;BME280;15036;48.094;-1.690;2023-03-31T15:42:31;99831.66;;;19.46;44.45
27613;BME280;15036;48.094;-1.690;2023-03-31T15:47:48;99829.75;;;19.36;45.35
27613;BME280;15036;48.094;-1.690;2023-03-31T15:50:14;99823.38;;;18.90;46.77
27613;BME280;15036;48.094;-1.690;2023-03-31T15:52:47;99849.59;;;18.53;49.05
27613;BME280;15036;48.094;-1.690;2023-03-31T15:57:52;99863.53;;;18.16;52.29
27613;BME280;15036;48.094;-1.690;2023-03-31T16:02:58;99866.00;;;19.45;48.75
27613;BME280;15036;48.094;-1.690;2023-03-31T16:05:33;99859.09;;;20.31;46.25
27613;BME280;15036;48.094;-1.690;2023-03-31T16:08:02;99858.63;;;20.14;46.37
27613;BME280;15036;48.094;-1.690;2023-03-31T16:10:27;99861.44;;;19.89;47.25
27613;BME280;15036;48.094;-1.690;2023-03-31T16:12:57;99842.44;;;18.77;48.09
27613;BME280;15036;48.094;-1.690;2023-03-31T16:15:31;99861.56;;;19.29;47.64
27613;BME280;15036;48.094;-1.690;2023-03-31T16:18:04;99849.91;;;18.76;47.85
27613;BME280;15036;48.094;-1.690;2023-03-31T16:20:31;99863.69;;;18.56;49.16